Accueil
METAR-TAF:

METAR-TAF

Aéroports :

Meriden-Markham Municipal Airport

Meriden, Connecticut, États-Unis

latitude: 41-30-35N, longitude: 072-49-40W, altitude: 31 m

Observation

Le bulletin a été fait il y a 51 minutes, à 22:53 UTC
Vent 7 kt de sud
Température 26°C
Humidité 54%
Pression 1008 hPa
Visibilité: 16.1 km
Quelques nuages à une hauteur de 11000 ft

METAR: KMMK 212253Z AUTO 19007KT 10SM FEW110 26/16 A2977 RMK AO2 SLP078 T02610161

Heure: 19:44 (23:44 UTC)


TAF: absent

Observations et prévisions météorologiques de plus de 4000 aéroports (messages METAR et TAF).

Les stations disponibles sont représentées par des disques jaunes et rouges sur la carte.

Passer la souris dessus pour voir le nom de la station.

Cliquer dessus pour voir les observations et prévisions météorologiques.

Pour changer de carte: cliquez sur les boutons verts avec une croix noire pour zoomer, sur le bouton vert avec un tiret pour effectuer un zoom arrière, ou sur les flèches vertes pour les cartes adjacentes.


METAR-TAF: